x

Neah Bay, - 6nm North Of Cape Flattery, Wa (traffic Separation Lighted Buoy) (46087) Wave Buoy

10:50 - Thu 27th Apr 2017 All times are PDT. -7 hours from GMT.

  • Sig Wave height 9.2ft
  • Swell Direction
  • Peak Period 10s
  • Average Period 8s
  • Wind
    16mph, 18mph gusts
  • Sea Temp 51°f
  • Air Temp 49°f
  • Sea Pressure 1018.5mb
  • Neah Bay, - 6nm North Of Cape Flattery, Wa     (traffic Separation Lighted Buoy)
  • Neah Bay, - 6nm North Of Cape Flattery, Wa     (traffic Separation Lighted Buoy)

More Historic Weather Station data

Upgrade to MSW Pro to gain access to the past 30 days of data for over 8000 Wavebouys and Weather Stations around the globe.

Join Pro

Comparision Forecast

View Surf forecast
   
jeu. 04/27 10:50 9ft 10s 8s 16 18 mph 1018.5mb 51f 49f
10:20 8ft 11s 8s 16 22 mph 1018.3mb 51f 51f
9:50 9.5ft 10s 9s 11 16 mph 1018.3mb 51f 51f
9:20 10ft 10s 9s 13 18 mph 1018.2mb 51f 51f
8:50 9ft 10s 8s 11 16 mph 1018.1mb 51f 47f
8:20 9.5ft 10s 9s 16 25 mph 1017.8mb 51f 46f
7:50 8ft 9s 8s 11 13 mph 1017.7mb 51f 49f
7:20 9ft 10s 8s 11 16 mph 1017.4mb 51f 48f
6:50 8.5ft 10s 8s 13 22 mph 1017.2mb 51f 48f
6:20 8ft 11s 8s 9 11 mph 1017mb 51f 44f
5:50 7.5ft 11s 7s 13 20 mph 1016.7mb 51f 44f
5:20 8.5ft 11s 8s 16 20 mph 1016.6mb 51f 47f
4:50 8ft 11s 7s 13 18 mph 1016.6mb 51f 46f
4:20 8ft 11s 7s 11 16 mph 1016.3mb 51f 46f
3:50 8ft 10s 7s 16 20 mph 1016mb 51f 47f
3:20 8ft 11s 7s 20 25 mph 1015.7mb 51f 47f
2:50 8ft 10s 7s 18 22 mph 1015.7mb 51f 48f
2:20 8ft 11s 7s 20 25 mph 1015.5mb 51f 49f
1:50 8.5ft 11s 7s 18 20 mph 1015.8mb 51f 45f
1:20 9ft 11s 7s 18 25 mph 1015.5mb 51f 45f
12:50 8ft 11s 7s 20 25 mph 1015.1mb 51f 49f
12:20 8.5ft 11s 7s 20 25 mph 1014.8mb 51f 48f
mer. 04/26 11:50 9ft 11s 7s 18 22 mph 1014.6mb 51f 49f
11:20 8.5ft 10s 7s 20 25 mph 1014.5mb 51f 49f
10:50 9ft 10s 7s 20 25 mph 1014.5mb 51f 48f
10:20 8.5ft 11s 7s 22 27 mph 1014.3mb 52f 49f
9:50 9ft 11s 8s 22 27 mph 1014.2mb 52f 49f
9:20 8.5ft 11s 7s 18 29 mph 1014.2mb 52f 47f
8:50 9ft 10s 7s 22 27 mph 1013.7mb 52f 47f
8:20 8.5ft 11s 7s 13 20 mph 1013.5mb 52f 48f
7:50 9ft 11s 8s 18 22 mph 1013.2mb 52f 49f
7:20 9ft 10s 7s 20 22 mph 1013.1mb 51f 49f
6:50 9.5ft 10s 8s 20 25 mph 1013mb 51f 51f
6:20 9.5ft 10s 8s 20 25 mph 1012.9mb 51f 50f
5:20 9.5ft 10s 7s 18 22 mph 1012.7mb 51f 49f
4:50 9.5ft 10s 7s 16 18 mph 1012.5mb 51f 52f
4:20 8.5ft 9s 7s 20 22 mph 1012mb 51f 51f
3:50 7.5ft 8s 6s 20 25 mph 1011.7mb 51f 50f
3:20 7ft 8s 6s 20 25 mph 1011.8mb 51f 52f
2:50 7ft 8s 6s 20 22 mph 1011.6mb 51f 51f
2:20 8ft 8s 6s 20 25 mph 1011.3mb 51f 52f
1:50 7.5ft 7s 6s 16 20 mph 1011.5mb 51f 51f
1:20 7.5ft 8s 6s 20 27 mph 1011.3mb 51f 47f
12:50 6ft 8s 6s 18 22 mph 1011mb 51f 52f
12:20 6ft 8s 6s 18 20 mph 1010.4mb 51f 50f
11:50 6ft 8s 6s 20 25 mph 1010mb 51f 50f
11:20 5.5ft 8s 6s 18 22 mph 1009.8mb 51f 50f
10:50 5.5ft 8s 6s 20 27 mph 1009.7mb 51f 49f
10:20 5ft 8s 6s 16 20 mph 1009.5mb 51f 50f
9:50 5ft 9s 7s 20 25 mph 1009.2mb 51f 49f
9:20 4.5ft 8s 7s 16 20 mph 1009.1mb 51f 50f
8:50 4ft 8s 6s 13 18 mph 1008.9mb 51f 47f
8:20 4.5ft 8s 7s 16 18 mph 1008.6mb 51f 49f
7:50 4.5ft 9s 6s 9 13 mph 1008.4mb 51f 48f
7:20 4.5ft 8s 6s 16 18 mph 1008.3mb 51f 46f
6:50 4.5ft 8s 6s 13 16 mph 1008mb 51f 46f
6:20 4.5ft 9s 6s 16 18 mph 1007.7mb 51f 48f
5:50 5ft 9s 5s 16 18 mph 1007.5mb 51f 48f
5:20 4.5ft 8s 5s 20 25 mph 1007.4mb 52f 48f
4:50 5ft 9s 6s 18 20 mph 1007.4mb 52f 49f
4:20 4.5ft 8s 5s 18 22 mph 1007.3mb 52f 49f
3:50 5ft 8s 5s 16 18 mph 1007.3mb 51f 47f
3:20 5ft 9s 6s 18 22 mph 1007.1mb 51f 48f
2:50 5ft 7s 5s 18 20 mph 1006.9mb 52f 48f
2:20 5ft 8s 5s 20 25 mph 1007.2mb 52f 49f
1:50 5.5ft 8s 6s 18 22 mph 1006.9mb 52f 48f
1:20 5ft 8s 6s 18 20 mph 1006.6mb 52f 50f
12:50 5.5ft 8s 6s 22 27 mph 1006.1mb 52f 49f
12:20 5ft 8s 6s 18 22 mph 1005.7mb 52f 49f
mar. 04/25 11:50 5ft 8s 7s 11 18 mph 1005.8mb 52f 49f
11:20 4.5ft 8s 6s 18 20 mph 1005.5mb 52f 48f
10:50 4.5ft 9s 7s 16 20 mph 1005.5mb 52f 48f
10:20 3.5ft 9s 6s 16 18 mph 1005.6mb 52f 48f
9:50 3.5ft 9s 7s 16 18 mph 1005.5mb 52f 48f
9:20 4.5ft 9s 7s 16 20 mph 1005.5mb 52f 48f
8:50 4ft 9s 7s 16 18 mph 1005.9mb 51f 48f
8:20 3.5ft 10s 6s 13 16 mph 1006mb 51f 48f
7:50 4.5ft 9s 7s 16
mph
1006.1mb 51f 48f
7:20 4ft 9s 7s 13 16 mph 1006.5mb 52f 48f
6:50 4ft 9s 7s 13 16 mph 1006.7mb 52f 49f
6:20 4.5ft 9s 6s 11 13 mph 1007.1mb 52f 49f
5:50 5ft 9s 6s 11 13 mph 1007.4mb 52f 49f
5:20 4.5ft 10s 6s 13 16 mph 1007.7mb 52f 49f
4:50 5ft 10s 7s 16 18 mph 1008mb 52f 49f
4:20 5ft 9s 6s 13 18 mph 1008.5mb 52f 50f
3:50 5ft 8s 6s 13 16 mph 1009.1mb 52f 50f
3:20 5ft 8s 6s 13 16 mph 1009.8mb 52f 49f
2:50 5.5ft 8s 7s 11 13 mph 1010.5mb 52f 49f
2:20 5.5ft 8s 7s 11 13 mph 1010.5mb 51f 50f
1:50 5.5ft 9s 7s 11 16 mph 1010.8mb 51f 50f
1:20 6ft 9s 7s 11 13 mph 1011.1mb 51f 50f
12:50 6ft 8s 7s 11 13 mph 1011.3mb 51f 50f
12:20 5.5ft 8s 7s 11
mph
1011.7mb 51f 51f
11:50 5.5ft 9s 7s 16 18 mph 1011.9mb 51f 51f
11:20 5ft 8s 7s 16 20 mph 1012.1mb 51f 49f
10:50 5ft 9s 8s 9 13 mph 1012.1mb 51f 51f
10:20 5ft 10s 8s 13 16 mph 1012.2mb 51f 51f
9:50 5ft 9s 8s 9 11 mph 1012.4mb 51f 51f
9:20 4.5ft 9s 8s 11 13 mph 1012.3mb 51f 50f
8:50 4.5ft 10s 8s 13 16 mph 1011.9mb 51f 50f
8:20 4.5ft 9s 8s 9 11 mph 1012.3mb 51f 51f
7:50 4.5ft 10s 8s 11 16 mph 1012.6mb 51f 50f
7:20 4.5ft 9s 8s 9 11 mph 1013.3mb 51f 50f
6:50 4ft 11s 8s 9 11 mph 1013.6mb 51f 50f
6:20 4ft 9s 7s 7 9 mph 1013.1mb 51f 49f
5:50 4.5ft 11s 7s 7
mph
1013.3mb 51f 49f
5:20 4.5ft 10s 7s 9 11 mph 1013mb 51f 48f
4:50 4.5ft 10s 7s 7 11 mph 1012.9mb 51f 48f
4:20 4.5ft 10s 7s 9
mph
1012.7mb 51f 50f
3:50 4ft 9s  -  9 11 mph 1012.5mb 51f 50f
3:20 4.5ft 10s 7s 11 13 mph 1012.7mb 51f 50f
2:50 5ft 10s 7s 11 13 mph 1013mb 51f 51f
2:20 5ft 10s 7s 11 13 mph 1013.2mb 52f 51f
1:50 5ft 8s 7s 11 13 mph 1013.2mb 52f 50f
1:20 5ft 9s 7s 4 9 mph 1012.6mb 52f 50f
12:50 5.5ft 10s 7s 2 7 mph 1012.1mb 52f 50f
12:20 6ft 10s 7s  -  4 mph 1011.7mb 52f 49f
lun. 04/24 11:50 6.5ft 9s 7s 2 4 mph 1011.6mb 52f 49f
11:20 6ft 10s 7s 7 9 mph 1011.7mb 52f 50f
10:50 6ft 10s 6s 9 11 mph 1011.7mb 52f 51f
10:20 6.5ft 11s 7s 11 16 mph 1011.7mb 52f 50f
9:50 6ft 11s 7s 18 20 mph 1011.4mb 53f 51f
9:20 6ft 11s 7s 18 22 mph 1011.3mb 53f 51f
8:50 6ft 11s 7s 18 22 mph 1010.6mb 53f 51f
8:20 6ft 10s 7s 18
mph
1010.2mb 53f 51f
7:50 6ft 10s 7s 18 20 mph 1009.9mb 53f 52f
7:20 7ft 11s 7s 18 22 mph 1009.7mb 53f 53f
6:50 7ft 10s 7s 18 20 mph 1009.5mb 53f 53f
6:20 6ft 11s 7s 18 20 mph 1009.3mb 53f 53f
5:50 7ft 10s 7s 18 22 mph 1009.2mb 53f 53f
5:20 6.5ft 11s 7s 16 20 mph 1009mb 53f 53f
4:50 6ft 10s 7s 18 22 mph 1009mb 53f 54f
4:20 6ft 11s 7s 16 20 mph 1008.9mb 53f 53f
3:50 6ft 10s 7s 18 20 mph 1008.8mb 53f 53f
3:20 7ft 11s 8s 16 18 mph 1008.7mb 53f 53f
2:50 7ft 11s 8s 13 16 mph 1008.6mb 53f 54f
2:20 7ft 11s 8s 13 18 mph 1008.3mb 53f 54f
1:50 6ft 9s 8s 18 20 mph 1008mb 53f 54f
1:20 6ft 11s 9s 16 18 mph 1007.8mb 53f 54f
12:50 7ft 11s 8s 13 16 mph 1007.7mb 53f 53f
12:20 7ft 11s 8s 7 9 mph 1007.7mb 53f 53f
11:50 6.5ft 11s 8s 7 9 mph 1007.5mb 53f 52f
11:20 6.5ft 11s 8s 7 9 mph 1007.3mb 52f 52f
10:50 6ft 11s 8s 2 4 mph 1007.1mb 52f 53f
10:20 6ft 11s 9s 4 7 mph 1006.9mb 52f 50f
9:50 5.5ft 11s 8s 4 7 mph 1006.9mb 52f 50f
9:20 6ft 11s 8s 7 9 mph 1006.9mb 52f 50f
8:50 5ft 12s 8s 9 13 mph 1006.9mb 52f 49f
8:20 5ft 11s 8s 13 16 mph 1006.6mb 52f 50f
7:50 5ft 11s 8s 11 16 mph 1006.5mb 52f 49f
7:20 4.5ft 12s 9s 7 11 mph 1006.5mb 52f 49f
6:50 4.5ft 11s 8s 9 11 mph 1006.4mb 52f 48f
6:20 4.5ft 11s 8s 7 9 mph 1006.3mb 52f 48f
5:20 5ft 11s 8s 4 7 mph 1006.4mb 52f 48f
4:50 5ft 12s 8s 7 9 mph 1006.5mb 52f 48f
4:20 5ft 11s 8s 9 11 mph 1006.4mb 52f 48f
3:50 5ft 11s 8s 9 11 mph 1006.4mb 52f 48f
3:20 5ft 12s 8s 9 11 mph 1006.5mb 52f 46f
2:50 5ft 12s 8s 9 11 mph 1006.7mb 52f 48f
2:20 5ft 11s 8s 9 11 mph 1006.8mb 52f 48f
1:50 5ft 11s 8s 9 11 mph 1006.9mb 52f 47f
1:20 5.5ft 12s 8s 9 13 mph 1007mb 52f 47f
12:50 6ft 12s 8s 9 11 mph 1007.2mb 52f 47f
12:20 6ft 11s 8s 9 13 mph 1007.3mb 52f 46f
dim. 04/23 11:50 6ft 11s 8s 9 11 mph 1007.4mb 52f 48f
11:20 6ft 11s 8s 9 11 mph 1007.4mb 52f 47f
10:50 7ft 11s 8s 11 13 mph 1007.4mb 52f 48f
10:20 7ft 12s 8s 11 13 mph 1007.4mb 52f 47f
9:50 7ft 11s 8s 11 13 mph 1007.5mb 52f 47f
9:20 7ft 12s 9s 11 16 mph 1007.4mb 52f 47f
8:50 6ft 11s 8s 13 16 mph 1007.2mb 52f 47f
8:20 6ft 12s 8s 7 11 mph 1007.3mb 52f 47f
7:50 6ft 11s 9s 4 7 mph 1007.4mb 52f 47f
7:20 6ft 12s 9s 9 11 mph 1007.4mb 52f 48f